Time;durP1;ratioP1;P1;durP2;ratioP2;P2;SDS_P1;SDS_P2;PMS_P1;PMS_P2;Temp;Humidity;BMP_temperature;BMP_pressure;BME280_temperature;BME280_humidity;BME280_pressure;Samples;Min_cycle;Max_cycle;Signal;HPM_P1;HPM_P2
2022/07/14 00:02:36;;;;;;;18.08;4.32;;;;;;;-148.88;94.59;75647.22;5077912;28;20108;-86
2022/07/14 00:05:07;;;;;;;17.73;4.15;;;;;;;-148.88;93.80;75633.00;5077131;28;20017;-85
2022/07/14 00:07:36;;;;;;;17.42;3.58;;;;;;;-148.88;92.81;75614.72;5076851;28;20028;-87
2022/07/14 00:10:13;;;;;;;18.55;4.00;;;;;;;-148.88;92.90;75614.72;5077961;28;20505;-87
2022/07/14 00:12:38;;;;;;;14.38;4.18;;;;;;;-148.88;92.92;75604.56;5077087;28;20105;-86
2022/07/14 00:15:07;;;;;;;15.68;3.92;;;;;;;-148.88;90.97;75618.78;5077591;28;20030;-86
2022/07/14 00:17:35;;;;;;;14.43;3.85;;;;;;;-148.88;90.79;75630.97;5076951;28;20056;-86
2022/07/14 00:20:23;;;;;;;15.90;3.00;;;;;;;-148.88;90.69;75635.03;5077387;28;20103;-86
2022/07/14 00:22:51;;;;;;;19.35;3.85;;;;;;;-148.88;90.74;75647.22;5075761;28;20040;-87
2022/07/14 00:25:20;;;;;;;16.58;4.25;;;;;;;-148.88;90.80;75645.19;5076507;28;20477;-87
2022/07/14 00:28:01;;;;;;;17.98;3.72;;;;;;;-148.88;90.12;75630.97;5075749;28;20032;-85
2022/07/14 00:30:27;;;;;;;14.27;3.22;;;;;;;-148.88;89.47;75626.91;5077081;28;20021;-85
2022/07/14 00:33:03;;;;;;;13.23;3.35;;;;;;;-148.88;89.31;75628.94;5077665;28;20023;-86
2022/07/14 00:35:35;;;;;;;13.80;3.40;;;;;;;-148.88;89.07;75624.88;5077685;28;20127;-85
2022/07/14 00:38:05;;;;;;;18.42;3.95;;;;;;;-148.88;88.77;75628.94;5078084;28;20039;-86
2022/07/14 00:40:33;;;;;;;16.88;3.80;;;;;;;-148.88;88.48;75639.09;5076193;28;20028;-86
2022/07/14 00:43:13;;;;;;;15.88;3.58;;;;;;;-148.88;88.76;75622.84;5076972;28;20060;-85
2022/07/14 00:45:39;;;;;;;15.60;3.50;;;;;;;-148.88;88.15;75633.00;5077370;28;20022;-87
2022/07/14 00:48:06;;;;;;;16.17;4.28;;;;;;;-148.88;88.90;75647.22;5076266;28;20025;-86
2022/07/14 00:50:37;;;;;;;16.50;3.58;;;;;;;-148.88;88.18;75643.16;5076094;28;20020;-86
2022/07/14 00:53:09;;;;;;;18.42;3.50;;;;;;;-148.88;87.89;75651.28;5076457;28;20039;-86
2022/07/14 00:55:39;;;;;;;15.00;3.13;;;;;;;-148.88;88.83;75671.59;5076804;28;20032;-85
2022/07/14 00:58:04;;;;;;;15.32;3.10;;;;;;;-148.88;87.75;75651.28;5076766;28;20024;-86
2022/07/14 01:00:30;;;;;;;11.57;3.15;;;;;;;-148.88;87.53;75663.47;5075172;28;20035;-87
2022/07/14 01:02:59;;;;;;;15.13;3.25;;;;;;;-148.88;87.90;75661.44;5076486;28;20115;-86
2022/07/14 01:05:27;;;;;;;18.92;3.78;;;;;;;-148.88;87.90;75679.72;5075452;28;20025;-85
2022/07/14 01:08:07;;;;;;;17.52;3.67;;;;;;;-148.88;87.45;75700.03;5074829;28;20031;-87
2022/07/14 01:10:43;;;;;;;14.20;3.15;;;;;;;-148.88;88.00;75695.97;5076253;28;20050;-85
2022/07/14 01:13:13;;;;;;;14.40;3.95;;;;;;;-148.88;89.06;75724.41;5075673;28;20104;-85
2022/07/14 01:15:44;;;;;;;12.90;3.08;;;;;;;-148.88;90.36;75738.63;5075921;28;20025;-86
2022/07/14 01:18:20;;;;;;;17.90;3.58;;;;;;;-148.88;89.61;75730.50;5076435;28;20031;-86
2022/07/14 01:20:45;;;;;;;17.38;3.45;;;;;;;-148.88;89.95;75724.41;5076198;28;20491;-86
2022/07/14 01:23:16;;;;;;;15.82;3.35;;;;;;;-148.88;89.70;75728.47;5075707;28;20066;-85
2022/07/14 01:25:45;;;;;;;12.50;2.70;;;;;;;-148.88;90.04;75732.53;5074864;28;20024;-86
2022/07/14 01:28:23;;;;;;;15.80;3.15;;;;;;;-148.88;89.76;75740.66;5074972;28;20031;-86
2022/07/14 01:31:09;;;;;;;13.48;3.65;;;;;;;-148.88;90.53;75754.88;5075065;28;20017;-86
2022/07/14 01:33:46;;;;;;;15.73;3.45;;;;;;;-148.88;91.74;75765.03;5074888;28;20032;-86
2022/07/14 01:36:17;;;;;;;16.30;3.65;;;;;;;-148.88;91.56;75750.81;5076165;28;20040;-85
2022/07/14 01:39:04;;;;;;;;;;;;;;;;;;;;;
2022/07/14 01:41:35;;;;;;;17.98;3.55;;;;;;;-148.88;90.88;75750.81;5076277;28;20016;-85
2022/07/14 01:44:04;;;;;;;18.08;3.85;;;;;;;-148.88;90.95;75736.59;5075721;28;20040;-85
2022/07/14 01:46:33;;;;;;;13.93;3.75;;;;;;;-148.88;91.51;75732.53;5074595;28;20028;-85
2022/07/14 01:49:23;;;;;;;12.68;3.40;;;;;;;-148.88;91.02;75730.50;5074334;28;20024;-85
2022/07/14 01:51:57;;;;;;;17.98;3.58;;;;;;;-148.88;91.86;75748.78;5076065;28;20021;-86
2022/07/14 01:54:35;;;;;;;18.33;3.85;;;;;;;-148.88;92.04;75752.84;5075768;28;20025;-85
2022/07/14 01:57:06;;;;;;;17.45;3.47;;;;;;;-148.88;91.83;75736.59;5075687;28;20031;-85
2022/07/14 01:59:32;;;;;;;15.63;3.40;;;;;;;-148.88;91.08;75728.47;5074475;28;20111;-86
2022/07/14 02:02:03;;;;;;;16.13;3.63;;;;;;;-148.88;91.04;75724.41;5074605;28;20166;-86
2022/07/14 02:04:32;;;;;;;16.00;3.25;;;;;;;-148.88;90.43;75724.41;5074755;28;20028;-86
2022/07/14 02:07:15;;;;;;;16.35;3.28;;;;;;;-148.88;90.59;75720.34;5075083;28;20032;-85
2022/07/14 02:12:33;;;;;;;17.73;3.10;;;;;;;-148.88;90.73;75720.34;5074859;28;20205;-84
2022/07/14 02:15:18;;;;;;;;;;;;;;;;;;;;;
2022/07/14 02:17:51;;;;;;;16.42;3.50;;;;;;;-148.88;91.06;75712.22;5074818;28;20402;-86
2022/07/14 02:20:26;;;;;;;;;;;;;;;;;;;;;
2022/07/14 02:23:01;;;;;;;13.60;3.45;;;;;;;-148.88;90.81;75708.16;5074937;28;20029;-87
2022/07/14 02:25:35;;;;;;;19.35;3.65;;;;;;;-148.88;90.81;75722.38;5073601;28;20473;-86
2022/07/14 02:28:14;;;;;;;16.23;3.13;;;;;;;-148.88;91.70;75748.78;5074169;28;20028;-86
2022/07/14 02:30:55;;;;;;;15.80;3.30;;;;;;;-148.88;92.35;75748.78;5075475;28;20099;-86
2022/07/14 02:33:28;;;;;;;18.40;3.75;;;;;;;-148.88;91.93;75736.59;5073680;28;20502;-85
2022/07/14 02:35:59;;;;;;;13.30;2.83;;;;;;;-148.88;90.90;75726.44;5073288;28;20070;-86
2022/07/14 02:38:25;;;;;;;14.68;3.72;;;;;;;-148.88;89.95;75726.44;5074236;28;20399;-87
2022/07/14 02:40:52;;;;;;;13.93;3.03;;;;;;;-148.88;90.09;75736.59;5079008;28;20020;-85
2022/07/14 02:43:18;;;;;;;14.60;3.30;;;;;;;-148.88;90.51;75736.59;5075086;28;20562;-85
2022/07/14 02:45:43;;;;;;;13.88;3.13;;;;;;;-148.88;90.54;75732.53;5074682;28;20048;-84
2022/07/14 02:48:08;;;;;;;11.70;3.42;;;;;;;-148.88;90.24;75740.66;5073489;28;20028;-85
2022/07/14 02:50:36;;;;;;;13.57;2.97;;;;;;;-148.88;90.97;75752.84;5074983;28;20502;-86
2022/07/14 02:53:04;;;;;;;14.85;3.20;;;;;;;-148.88;91.22;75775.19;5075009;28;20074;-84
2022/07/14 02:55:34;;;;;;;11.27;2.95;;;;;;;-148.88;90.78;75769.09;5076660;28;20060;-85
2022/07/14 02:57:59;;;;;;;10.95;2.83;;;;;;;-148.88;89.61;75756.91;5077038;28;20066;-85
2022/07/14 03:00:24;;;;;;;10.82;2.38;;;;;;;-148.88;89.46;75750.81;5076003;28;20053;-85
2022/07/14 03:02:50;;;;;;;12.77;2.90;;;;;;;-148.88;88.06;75746.75;5075344;28;20025;-84
2022/07/14 03:05:16;;;;;;;10.68;2.30;;;;;;;-148.88;88.79;75740.66;5075884;28;20077;-86
2022/07/14 03:07:41;;;;;;;15.77;3.08;;;;;;;-148.88;88.43;75744.72;5078844;28;20494;-84
2022/07/14 03:10:08;;;;;;;16.13;3.58;;;;;;;-148.88;89.24;75765.03;5080070;28;20020;-85
2022/07/14 03:12:33;;;;;;;15.20;2.80;;;;;;;-148.88;89.32;75752.84;5080545;28;20084;-87
2022/07/14 03:14:58;;;;;;;11.25;2.67;;;;;;;-148.88;88.70;75750.81;5077342;28;20520;-88
2022/07/14 03:17:24;;;;;;;9.93;2.50;;;;;;;-148.88;88.23;75754.88;5075317;28;20037;-86
2022/07/14 03:19:49;;;;;;;10.30;2.65;;;;;;;-148.88;87.97;75750.81;5075428;28;20021;-84
2022/07/14 03:22:15;;;;;;;9.85;2.38;;;;;;;-148.88;87.62;75760.97;5073723;28;20036;-85
2022/07/14 03:24:47;;;;;;;10.98;2.78;;;;;;;-148.88;88.12;75756.91;5075934;28;20051;-85
2022/07/14 03:27:12;;;;;;;11.70;2.65;;;;;;;-148.88;88.55;75754.88;5074515;28;20017;-84
2022/07/14 03:29:47;;;;;;;13.73;2.78;;;;;;;-148.88;88.41;75763.00;5074572;28;20418;-84
2022/07/14 03:32:13;;;;;;;14.82;2.90;;;;;;;-148.88;88.31;75779.25;5076379;28;20044;-84
2022/07/14 03:34:38;;;;;;;14.07;2.45;;;;;;;-148.88;88.59;75785.34;5075451;28;20032;-84
2022/07/14 03:37:09;;;;;;;11.10;2.75;;;;;;;-148.88;88.72;75781.28;5077196;28;20074;-85
2022/07/14 03:39:41;;;;;;;14.70;3.10;;;;;;;-148.88;89.08;75779.25;5074768;28;20032;-87
2022/07/14 03:42:07;;;;;;;16.17;3.30;;;;;;;-148.88;88.65;75777.22;5074001;28;20048;-84
2022/07/14 03:44:32;;;;;;;11.85;2.53;;;;;;;-148.88;88.24;75777.22;5074021;28;20021;-84
2022/07/14 03:47:08;;;;;;;13.05;2.63;;;;;;;-148.88;90.03;75801.59;5076647;28;20020;-84
2022/07/14 03:50:06;;;;;;;10.23;2.75;;;;;;;-148.88;90.48;75789.41;5079416;28;20039;-85
2022/07/14 03:52:34;;;;;;;12.18;2.95;;;;;;;-148.88;90.50;75793.47;5081473;28;20484;-83
2022/07/14 03:55:00;;;;;;;12.52;2.40;;;;;;;-148.88;90.36;75791.44;5079126;28;20035;-84
2022/07/14 03:57:28;;;;;;;11.57;2.75;;;;;;;-148.88;90.68;75781.28;5079971;28;20050;-83
2022/07/14 03:59:54;;;;;;;8.95;2.40;;;;;;;-148.88;90.65;75775.19;5074767;28;20020;-84
2022/07/14 04:02:19;;;;;;;12.43;2.75;;;;;;;-148.88;90.92;75783.31;5074844;28;20025;-84
2022/07/14 04:04:47;;;;;;;14.25;3.35;;;;;;;-148.88;91.89;75811.75;5073671;28;20440;-84
2022/07/14 04:07:12;;;;;;;10.63;3.00;;;;;;;-148.88;94.02;75842.22;5073216;28;20394;-85
2022/07/14 04:09:38;;;;;;;12.13;2.70;;;;;;;-148.88;95.24;75840.19;5074027;28;20481;-85
2022/07/14 04:12:04;;;;;;;10.35;2.97;;;;;;;-148.88;94.83;75854.41;5075221;28;20024;-85
2022/07/14 04:14:32;;;;;;;14.32;3.47;;;;;;;-148.88;95.05;75850.34;5076622;28;20024;-85
2022/07/14 04:16:58;;;;;;;14.10;3.08;;;;;;;-148.88;95.00;75856.44;5074783;28;20056;-85
2022/07/14 04:19:26;;;;;;;15.43;3.42;;;;;;;-148.88;95.52;75882.84;5076621;28;20059;-85
2022/07/14 04:21:51;;;;;;;14.95;3.67;;;;;;;-148.88;97.33;75911.28;5077979;28;20021;-85
2022/07/14 04:24:26;;;;;;;14.50;3.58;;;;;;;-148.88;98.21;75923.47;5073718;28;20031;-84
2022/07/14 04:26:57;;;;;;;19.10;3.97;;;;;;;-148.88;98.85;75935.66;5073212;28;20025;-84
2022/07/14 04:29:27;;;;;;;13.98;3.22;;;;;;;-148.88;99.40;75947.84;5072706;28;20557;-85
2022/07/14 04:32:07;;;;;;;15.00;3.97;;;;;;;-148.88;99.74;75964.09;5073518;28;20101;-85
2022/07/14 04:34:36;;;;;;;20.23;4.18;;;;;;;-148.88;99.89;75972.22;5073373;28;20032;-84
2022/07/14 04:37:04;;;;;;;14.57;3.80;;;;;;;-148.88;100.00;75976.28;5073781;28;20483;-85
2022/07/14 04:39:30;;;;;;;15.38;3.58;;;;;;;-148.88;100.00;75966.13;5074882;28;20499;-84
2022/07/14 04:41:55;;;;;;;15.57;3.97;;;;;;;-148.88;100.00;75935.66;5077588;28;20080;-85
2022/07/14 04:44:21;;;;;;;14.98;3.38;;;;;;;-148.88;99.28;75915.34;5077104;28;20039;-85
2022/07/14 04:46:46;;;;;;;12.60;3.20;;;;;;;-148.88;98.55;75907.22;5078081;28;20540;-85
2022/07/14 04:52:04;;;;;;;12.02;3.42;;;;;;;-148.88;97.82;75882.84;5077563;28;20063;-85
2022/07/14 04:54:31;;;;;;;15.45;3.80;;;;;;;-148.88;96.71;75882.84;5076305;28;20029;-85
2022/07/14 04:57:00;;;;;;;13.90;3.03;;;;;;;-148.88;96.66;75868.63;5075262;28;20036;-85
2022/07/14 04:59:27;;;;;;;13.82;3.63;;;;;;;-148.88;96.24;75866.59;5076317;28;20447;-85
2022/07/14 05:01:52;;;;;;;13.05;3.47;;;;;;;-148.88;96.28;75866.59;5076799;28;20031;-85
2022/07/14 05:04:18;;;;;;;14.13;3.25;;;;;;;-148.88;95.42;75862.53;5076725;28;20111;-85
2022/07/14 05:06:46;;;;;;;17.75;4.57;;;;;;;-148.88;95.04;75846.28;5075490;28;20107;-85
2022/07/14 05:09:13;;;;;;;15.70;3.53;;;;;;;-148.88;94.55;75854.41;5103996;22;20482;-82
2022/07/14 05:11:38;;;;;;;15.98;3.63;;;;;;;-148.88;94.41;75850.34;5095640;28;20016;-82
2022/07/14 05:14:03;;;;;;;15.25;3.08;;;;;;;-148.88;94.87;75836.13;5094797;28;20024;-82
2022/07/14 05:16:29;;;;;;;13.25;3.50;;;;;;;-148.88;94.78;75834.09;5096129;28;20070;-82
2022/07/14 05:18:54;;;;;;;13.93;3.40;;;;;;;-148.88;94.07;75836.13;5095851;28;20410;-82
2022/07/14 05:21:19;;;;;;;13.73;3.70;;;;;;;-148.88;94.02;75830.03;5096025;28;20085;-83
2022/07/14 05:23:45;;;;;;;15.57;3.55;;;;;;;-148.88;93.45;75825.97;5094478;28;20384;-81
2022/07/14 05:26:13;;;;;;;12.25;3.08;;;;;;;-148.88;93.17;75825.97;5095547;28;20027;-82
2022/07/14 05:28:39;;;;;;;13.48;2.90;;;;;;;-148.88;92.09;75815.81;5093853;28;20024;-82
2022/07/14 05:31:05;;;;;;;9.30;2.67;;;;;;;-148.88;91.95;75813.78;5094440;28;20016;-82
2022/07/14 05:33:30;;;;;;;9.48;2.80;;;;;;;-148.88;91.70;75811.75;5096693;28;20024;-82
2022/07/14 05:35:55;;;;;;;10.65;2.92;;;;;;;-148.88;90.90;75817.84;5098196;28;20024;-82
2022/07/14 05:38:21;;;;;;;8.88;2.70;;;;;;;-148.88;90.58;75809.72;5096656;28;20051;-82
2022/07/14 05:40:47;;;;;;;15.30;3.33;;;;;;;-148.88;91.04;75805.66;5094847;28;20036;-82
2022/07/14 05:43:13;;;;;;;11.63;3.15;;;;;;;-148.88;91.43;75791.44;5096771;28;20024;-82
2022/07/14 05:45:39;;;;;;;12.02;2.97;;;;;;;-148.88;91.98;75793.47;5094474;28;20089;-83
2022/07/14 05:48:05;;;;;;;13.02;3.33;;;;;;;-148.88;91.17;75799.56;5095718;28;20024;-82
2022/07/14 05:50:30;;;;;;;12.93;2.78;;;;;;;-148.88;91.25;75793.47;5093073;28;20034;-82
2022/07/14 05:52:55;;;;;;;12.00;3.30;;;;;;;-148.88;90.44;75797.53;5095310;28;20020;-82
2022/07/14 05:55:22;;;;;;;12.73;2.75;;;;;;;-148.88;91.24;75785.34;5093723;28;20432;-83
2022/07/14 05:57:48;;;;;;;13.05;2.90;;;;;;;-148.88;89.82;75799.56;5095525;28;20024;-83
2022/07/14 06:00:15;;;;;;;11.77;2.75;;;;;;;-148.88;89.53;75803.63;5094313;28;20016;-82
2022/07/14 06:02:41;;;;;;;10.77;3.08;;;;;;;-148.88;89.64;75789.41;5095597;28;20065;-83
2022/07/14 06:05:07;;;;;;;14.07;3.20;;;;;;;-148.88;89.99;75779.25;5094837;28;20020;-83
2022/07/14 06:07:32;;;;;;;12.13;2.60;;;;;;;-148.88;87.99;75785.34;5094216;28;20027;-83
2022/07/14 06:09:58;;;;;;;12.63;2.97;;;;;;;-148.88;88.33;75779.25;5093388;28;20055;-81
2022/07/14 06:12:23;;;;;;;12.48;2.90;;;;;;;-148.88;87.66;75773.16;5095176;28;20482;-82
2022/07/14 06:14:48;;;;;;;12.23;2.72;;;;;;;-148.88;87.97;75765.03;5095309;28;20118;-82
2022/07/14 06:17:14;;;;;;;12.38;2.65;;;;;;;-148.88;87.53;75765.03;5094233;28;20470;-82
2022/07/14 06:19:40;;;;;;;12.00;2.92;;;;;;;-148.88;86.84;75748.78;5094609;28;20050;-83
2022/07/14 06:22:06;;;;;;;12.60;2.67;;;;;;;-148.88;85.97;75742.69;5095239;28;20473;-82
2022/07/14 06:24:33;;;;;;;13.45;2.70;;;;;;;-148.88;84.82;75748.78;5094760;28;20500;-81
2022/07/14 06:26:58;;;;;;;12.43;2.72;;;;;;;-148.88;83.67;75744.72;5094533;28;20503;-82
2022/07/14 06:29:23;;;;;;;11.43;2.38;;;;;;;-148.88;83.79;75732.53;5093017;28;20028;-83
2022/07/14 06:31:51;;;;;;;13.88;2.95;;;;;;;-148.88;83.77;75718.31;5094944;28;20028;-83
2022/07/14 06:34:16;;;;;;;15.63;2.75;;;;;;;-148.88;84.37;75691.91;5094306;28;20039;-83
2022/07/14 06:36:41;;;;;;;14.27;3.13;;;;;;;-148.88;82.56;75663.47;5094114;28;20367;-82
2022/07/14 06:39:07;;;;;;;8.65;2.45;;;;;;;-148.88;79.12;75651.28;5094873;28;20487;-82
2022/07/14 06:41:32;;;;;;;12.07;2.42;;;;;;;-148.88;78.55;75645.19;5093751;28;20020;-82
2022/07/14 06:43:57;;;;;;;9.82;2.35;;;;;;;-148.88;78.90;75635.03;5094090;28;20107;-82
2022/07/14 06:46:23;;;;;;;10.70;2.95;;;;;;;-148.88;77.76;75630.97;5094920;28;20463;-83
2022/07/14 06:48:48;;;;;;;12.02;2.20;;;;;;;-148.88;78.75;75624.88;5092244;28;20020;-81
2022/07/14 06:51:14;;;;;;;12.63;2.22;;;;;;;-148.88;77.62;75643.16;5092978;28;20038;-82
2022/07/14 06:53:39;;;;;;;11.07;2.50;;;;;;;-148.88;77.49;75649.25;5093620;28;20047;-82
2022/07/14 06:56:05;;;;;;;9.57;2.00;;;;;;;-148.88;74.71;75630.97;5093733;28;20028;-82
2022/07/14 06:58:30;;;;;;;9.68;1.80;;;;;;;-148.88;74.51;75618.78;5093635;28;20073;-84
2022/07/14 07:00:56;;;;;;;7.80;1.98;;;;;;;-148.88;74.68;75618.78;5094593;28;20020;-82
2022/07/14 07:03:21;;;;;;;9.25;2.35;;;;;;;-148.88;77.32;75594.44;5094067;28;20047;-83
2022/07/14 07:08:31;;;;;;;10.50;1.95;;;;;;;-148.88;71.62;75568.03;5092920;28;20191;-83
2022/07/14 07:10:57;;;;;;;10.07;2.40;;;;;;;-148.88;73.06;75549.75;5093555;28;20091;-82
2022/07/14 07:13:23;;;;;;;8.88;1.83;;;;;;;-148.88;71.14;75529.44;5093107;28;20077;-82
2022/07/14 07:15:49;;;;;;;7.97;1.90;;;;;;;-148.88;70.96;75521.31;5093266;28;20051;-83
2022/07/14 07:18:14;;;;;;;5.63;1.80;;;;;;;-148.88;71.38;75496.94;5091970;28;20489;-83
2022/07/14 07:20:39;;;;;;;8.35;1.95;;;;;;;-148.88;70.10;75486.78;5093606;28;20020;-81
2022/07/14 07:23:05;;;;;;;8.00;2.10;;;;;;;-148.88;70.26;75507.09;5093559;28;20028;-80
2022/07/14 07:25:30;;;;;;;9.57;1.85;;;;;;;-148.88;71.40;75513.19;5095428;28;20024;-80
2022/07/14 07:27:56;;;;;;;8.90;1.50;;;;;;;-148.88;71.14;75517.25;5093621;28;20027;-80
2022/07/14 07:30:21;;;;;;;9.68;2.03;;;;;;;-148.88;71.22;75511.16;5093295;28;20020;-81
2022/07/14 07:32:46;;;;;;;8.63;1.65;;;;;;;-148.88;69.38;75533.50;5092113;28;20500;-81
2022/07/14 07:35:12;;;;;;;9.68;1.77;;;;;;;-148.88;70.61;75553.81;5093437;28;20020;-80
2022/07/14 07:37:37;;;;;;;9.32;1.83;;;;;;;-148.88;71.39;75547.72;5093510;28;20173;-81
2022/07/14 07:40:03;;;;;;;10.20;2.20;;;;;;;-148.88;72.93;75578.19;5093236;28;20039;-81
2022/07/14 07:42:29;;;;;;;12.10;2.20;;;;;;;-148.88;73.16;75633.00;5092800;28;20038;-83
2022/07/14 07:44:55;;;;;;;7.90;2.15;;;;;;;-148.88;73.14;75608.63;5093468;28;20028;-83
2022/07/14 07:47:21;;;;;;;8.63;1.92;;;;;;;-148.88;73.64;75606.59;5092246;28;20020;-82
2022/07/14 07:49:46;;;;;;;6.30;1.90;;;;;;;-148.88;72.67;75586.31;5092095;28;20020;-83
2022/07/14 07:52:11;;;;;;;7.72;1.73;;;;;;;-148.88;71.94;75594.44;5091377;28;20450;-83
2022/07/14 07:54:37;;;;;;;10.55;2.25;;;;;;;-148.88;70.06;75561.94;5091794;28;20020;-83
2022/07/14 07:57:02;;;;;;;6.43;1.50;;;;;;;-148.88;68.13;75551.78;5092922;28;20024;-81
2022/07/14 07:59:27;;;;;;;9.88;2.00;;;;;;;-148.88;70.56;75535.53;5092924;28;20023;-83
2022/07/14 08:01:53;;;;;;;7.60;1.80;;;;;;;-148.88;69.68;75537.56;5093095;28;20072;-80
2022/07/14 08:04:18;;;;;;;9.60;1.73;;;;;;;-148.88;71.02;75521.31;5092967;28;20060;-79
2022/07/14 08:06:43;;;;;;;7.50;1.90;;;;;;;-148.88;69.21;75543.66;5092819;28;20048;-80
2022/07/14 08:09:12;;;;;;;7.03;1.60;;;;;;;-148.88;68.74;75529.44;5093148;28;20409;-81
2022/07/14 08:11:49;;;;;;;6.95;1.70;;;;;;;-148.88;68.91;75494.91;5091816;28;20024;-81
2022/07/14 08:16:58;;;;;;;8.32;1.80;;;;;;;-148.88;69.35;75464.44;5096943;28;20039;-81
2022/07/14 08:19:24;;;;;;;9.48;1.70;;;;;;;-148.88;67.44;75448.19;5094556;28;20028;-81
2022/07/14 08:21:49;;;;;;;8.50;1.60;;;;;;;-148.88;67.83;75407.56;5096138;28;20024;-82
2022/07/14 08:24:15;;;;;;;6.32;1.70;;;;;;;-148.88;66.24;75391.31;5096410;28;20161;-81
2022/07/14 08:26:41;;;;;;;6.78;1.60;;;;;;;-148.88;65.30;75383.19;5094951;28;20405;-82
2022/07/14 08:29:07;;;;;;;7.13;1.58;;;;;;;-148.88;64.53;75364.91;5096930;28;20047;-81
2022/07/14 08:31:33;;;;;;;5.70;1.60;;;;;;;-148.88;62.35;75352.72;5096690;28;20032;-82
2022/07/14 08:33:58;;;;;;;6.75;1.70;;;;;;;-148.88;63.65;75334.44;5095045;28;20045;-81
2022/07/14 08:36:23;;;;;;;8.85;1.70;;;;;;;-148.88;63.00;75354.75;5095583;28;20110;-81
2022/07/14 08:38:49;;;;;;;4.40;1.17;;;;;;;-148.88;60.38;75371.00;5096570;28;20106;-82
2022/07/14 08:41:14;;;;;;;5.88;1.40;;;;;;;-148.88;61.16;75346.63;5097463;28;20028;-82
2022/07/14 08:43:40;;;;;;;7.50;1.58;;;;;;;-148.88;61.92;75338.50;5095847;28;20024;-82
2022/07/14 08:46:05;;;;;;;6.80;1.55;;;;;;;-148.88;62.90;75354.75;5094928;28;20478;-81
2022/07/14 08:48:33;;;;;;;6.47;1.65;;;;;;;-148.88;63.33;75362.88;5095777;28;20060;-81
2022/07/14 08:50:59;;;;;;;8.70;1.73;;;;;;;-148.88;60.54;75354.75;5096015;28;20027;-81
2022/07/14 08:53:26;;;;;;;7.97;1.70;;;;;;;-148.88;59.86;75326.31;5096346;28;20082;-81
2022/07/14 08:55:55;;;;;;;4.78;1.30;;;;;;;-148.88;57.94;75297.88;5094251;28;20504;-81
2022/07/14 08:58:20;;;;;;;7.63;1.48;;;;;;;-148.88;59.20;75287.72;5095018;28;20351;-81
2022/07/14 09:00:46;;;;;;;8.00;1.30;;;;;;;-148.88;57.39;75279.59;5095295;28;20024;-82
2022/07/14 09:03:11;;;;;;;5.45;1.70;;;;;;;-148.88;57.66;75271.50;5094306;28;20020;-81
2022/07/14 09:08:58;;;;;;;6.75;1.23;;;;;;;-148.88;56.08;75265.41;5095148;28;20062;-81
2022/07/14 09:11:24;;;;;;;7.82;1.48;;;;;;;-148.88;58.36;75271.50;5094638;28;20455;-82
2022/07/14 09:13:50;;;;;;;4.72;1.10;;;;;;;-148.88;55.68;75241.03;5094291;28;20028;-82
2022/07/14 09:16:23;;;;;;;6.38;1.42;;;;;;;-148.88;55.59;75249.16;5097198;28;20038;-81
2022/07/14 09:19:02;;;;;;;;;;;;;;;-148.88;56.07;75208.53;5095074;28;20169;-82
2022/07/14 09:21:27;;;;;;;7.68;1.40;;;;;;;-148.88;55.23;75222.75;5094172;28;20011;-82
2022/07/14 09:23:55;;;;;;;5.47;1.50;;;;;;;-148.88;56.02;75243.06;5095351;28;20067;-81
2022/07/14 09:26:21;;;;;;;7.05;1.20;;;;;;;-148.88;54.96;75212.59;5095042;28;20024;-82
2022/07/14 09:28:49;;;;;;;8.00;1.58;;;;;;;-148.88;53.74;75208.53;5093806;28;20508;-81
2022/07/14 09:31:22;;;;;;;6.90;1.27;;;;;;;-148.88;57.43;75171.97;5094261;28;20028;-82
2022/07/14 09:33:50;;;;;;;7.97;1.52;;;;;;;-148.88;57.59;75188.22;5095707;28;20024;-82
2022/07/14 09:36:36;;;;;;;5.70;1.20;;;;;;;-148.88;55.08;75171.97;5095310;28;20028;-81
2022/07/14 09:39:06;;;;;;;4.40;1.15;;;;;;;-148.88;53.69;75151.66;5094768;28;20085;-81
2022/07/14 09:41:48;;;;;;;5.53;1.30;;;;;;;-148.88;50.82;75141.50;5093439;28;20020;-82
2022/07/14 09:44:17;;;;;;;4.55;1.00;;;;;;;-148.88;49.90;75121.19;5095496;28;20027;-81
2022/07/14 09:46:51;;;;;;;5.97;1.67;;;;;;;-148.88;50.87;75115.09;5095296;28;20016;-82
2022/07/14 09:49:18;;;;;;;7.28;1.80;;;;;;;-148.88;50.00;75088.72;5095513;28;20031;-82
2022/07/14 09:51:58;;;;;;;4.18;1.60;;;;;;;-148.88;49.36;75064.34;5093988;28;20044;-83
2022/07/14 09:54:45;;;;;;;5.03;1.98;;;;;;;-148.88;49.37;75017.63;5093762;28;20100;-82
2022/07/14 09:57:14;;;;;;;7.13;2.17;;;;;;;-148.88;48.81;75066.38;5095781;28;20027;-81
2022/07/14 09:59:51;;;;;;;7.20;2.50;;;;;;;-148.88;49.30;75019.66;5095189;28;20020;-81
2022/07/14 10:02:28;;;;;;;6.10;2.40;;;;;;;-148.88;49.58;75021.69;5095707;28;20070;-82
2022/07/14 10:05:01;;;;;;;7.88;2.80;;;;;;;-148.88;50.17;74999.34;5095711;28;20412;-83
2022/07/14 10:07:29;;;;;;;5.40;2.25;;;;;;;-148.88;50.38;75017.63;5094564;28;20024;-82
2022/07/14 10:09:58;;;;;;;6.15;2.35;;;;;;;-148.88;49.68;75056.22;5095213;28;20028;-82
2022/07/14 10:12:25;;;;;;;8.40;2.25;;;;;;;-148.88;50.53;75029.81;5094549;28;20028;-81
2022/07/14 10:14:52;;;;;;;6.72;2.65;;;;;;;-148.88;51.48;74977.00;5094481;28;20024;-81
2022/07/14 10:17:20;;;;;;;8.70;3.13;;;;;;;-148.88;51.02;74991.22;5094629;28;20386;-81
2022/07/14 10:19:47;;;;;;;6.50;2.60;;;;;;;-148.88;49.59;74968.88;5093375;28;20173;-81
2022/07/14 10:22:14;;;;;;;5.60;2.60;;;;;;;-148.88;52.05;74981.06;5094335;28;20427;-81
2022/07/14 10:24:41;;;;;;;6.88;2.85;;;;;;;-148.88;49.73;74972.94;5094976;28;20024;-81
2022/07/14 10:27:07;;;;;;;5.53;1.70;;;;;;;-148.88;48.25;74918.13;5095248;28;20016;-79
2022/07/14 10:29:33;;;;;;;6.47;2.00;;;;;;;-148.88;48.19;74924.22;5095192;28;20024;-80
2022/07/14 10:32:14;;;;;;;4.32;1.48;;;;;;;-148.88;49.18;74889.69;5094677;28;20016;-81
2022/07/14 10:34:54;;;;;;;7.60;1.67;;;;;;;-148.88;48.57;74964.81;5094560;28;20499;-79
2022/07/14 10:37:32;;;;;;;3.58;1.40;;;;;;;-148.88;48.25;75037.94;5095591;28;20157;-80
2022/07/14 10:40:10;;;;;;;8.32;1.55;;;;;;;-148.88;48.04;74997.31;5094788;28;20024;-80
2022/07/14 10:43:05;;;;;;;5.75;1.50;;;;;;;-148.88;47.28;74966.84;5093919;28;20492;-83
2022/07/14 10:45:31;;;;;;;6.68;1.48;;;;;;;-148.88;47.53;74907.97;5094475;28;20032;-80
2022/07/14 10:47:56;;;;;;;2.83;1.02;;;;;;;-148.88;45.50;74863.28;5095346;28;20022;-80
2022/07/14 10:50:24;;;;;;;3.85;1.30;;;;;;;-148.88;45.09;74869.38;5095024;28;20111;-80
2022/07/14 10:52:57;;;;;;;6.93;1.35;;;;;;;-148.88;45.64;74822.66;5094706;28;20102;-80
2022/07/14 10:55:29;;;;;;;5.60;1.02;;;;;;;-148.88;44.59;74761.75;5092010;28;20077;-81
2022/07/14 10:58:04;;;;;;;5.35;0.90;;;;;;;-148.88;44.94;74867.34;5093288;28;20474;-81
2022/07/14 11:00:38;;;;;;;6.55;1.25;;;;;;;-148.88;44.07;74806.44;5092839;28;20040;-81
2022/07/14 11:03:24;;;;;;;5.07;1.30;;;;;;;-148.88;44.87;74806.44;5094257;28;20023;-81
2022/07/14 11:06:11;;;;;;;3.67;0.90;;;;;;;-148.88;44.74;74729.25;5093465;28;20394;-81
2022/07/14 11:11:17;;;;;;;3.63;0.85;;;;;;;-148.88;43.69;74641.94;5052455;28;20116;-87
2022/07/14 11:14:00;;;;;;;5.68;1.27;;;;;;;-148.88;44.61;74775.97;5053560;28;20028;-86
2022/07/14 11:16:44;;;;;;;4.78;1.02;;;;;;;-148.88;45.02;74855.16;5035509;28;20179;-87
2022/07/14 11:19:35;;;;;;;5.95;1.17;;;;;;;-148.88;46.33;74922.19;5053223;28;20053;-84
2022/07/14 11:22:20;;;;;;;3.33;1.10;;;;;;;-148.88;43.41;74822.66;5053444;28;20437;-85
2022/07/14 11:24:57;;;;;;;5.07;1.13;;;;;;;-148.88;44.62;74725.19;5053348;28;20029;-87
2022/07/14 11:27:47;;;;;;;4.28;0.85;;;;;;;-148.88;45.10;74694.75;5053389;28;20071;-85
2022/07/14 11:30:31;;;;;;;6.95;1.00;;;;;;;-148.88;43.23;74763.78;5035782;28;20060;-86
2022/07/14 11:33:14;;;;;;;5.28;1.00;;;;;;;-148.88;44.26;74794.25;5053423;28;20053;-86
2022/07/14 11:38:34;;;;;;;6.75;1.75;;;;;;;-148.88;42.97;74680.53;5053515;28;19931;-87
2022/07/14 11:41:00;;;;;;;5.10;1.33;;;;;;;-148.88;41.63;74694.75;5035297;28;20032;-84
2022/07/14 11:43:31;;;;;;;5.15;1.33;;;;;;;-148.88;42.02;74700.84;5053178;28;20025;-85
2022/07/14 11:45:59;;;;;;;3.78;0.88;;;;;;;-148.88;44.59;74867.34;5053100;28;20061;-83
2022/07/14 11:48:30;;;;;;;3.40;1.00;;;;;;;-148.88;45.45;74822.66;5054665;28;20031;-86